| time (UTC) | temp F | wind direction | speed MPH | gust MPH | rain 1hr in | rain 24hr in | rain mn in | humidity % | barometer mb |
| 20260904121559 | 0 | 0.0 | 0.0 | 0.00 | 0.20 | 0.20 | 1011.0 | ||
| 20260904120054 | 0 | 0.0 | 0.0 | 0.00 | 0.20 | 0.20 | 1010.9 | ||
| 20260904114547 | 0 | 0.0 | 0.0 | 0.00 | 0.20 | 0.20 | 1010.9 | ||
| 20260904113052 | 0 | 0.0 | 0.0 | 0.00 | 0.20 | 0.20 | 1011.0 | ||
| 20260904111538 | 0 | 0.0 | 0.0 | 0.00 | 0.20 | 0.20 | 1010.8 | ||
| 20260904110038 | 0 | 0.0 | 0.0 | 0.00 | 0.20 | 0.20 | 1010.7 | ||
| 20260904104529 | 0 | 0.0 | 0.0 | 0.00 | 0.20 | 0.20 | 1010.6 | ||
| 20260904103026 | 0 | 0.0 | 0.0 | 0.00 | 0.20 | 0.20 | 1010.6 | ||
| 20260904101524 | 0 | 0.0 | 0.0 | 0.00 | 0.20 | 0.20 | 1010.5 | ||
| 20260904100018 | 0 | 0.0 | 0.0 | 0.00 | 0.20 | 0.20 | 1010.3 | ||
| 20260904094519 | 0 | 0.0 | 0.0 | 0.00 | 0.20 | 0.20 | 1010.4 | ||
| 20260904093009 | 0 | 0.0 | 0.0 | 0.00 | 0.20 | 0.20 | 1010.3 | ||
| 20260904091505 | 0 | 0.0 | 0.0 | 0.00 | 0.20 | 0.20 | 1010.2 | ||
| 20260904090000 | 0 | 0.0 | 0.0 | 0.00 | 0.20 | 0.20 | 1010.2 | ||
| 20260904084556 | 0 | 0.0 | 0.0 | 0.00 | 0.20 | 0.20 | 1010.3 | ||
| 20260904083053 | 0 | 0.0 | 0.0 | 0.00 | 0.20 | 0.20 | 1010.2 | ||
| 20260904081553 | 0 | 0.0 | 0.0 | 0.00 | 0.20 | 0.20 | 1010.3 | ||
| 20260904080051 | 0 | 0.0 | 0.0 | 0.00 | 0.20 | 0.20 | 1010.4 | ||
| 20260904074545 | 0 | 0.0 | 0.0 | 0.00 | 0.20 | 0.20 | 1010.5 | ||
| 20260904073040 | 0 | 0.0 | 0.0 | 0.00 | 0.20 | 0.20 | 1010.6 | ||
| 20260904071534 | 0 | 0.0 | 0.0 | 0.00 | 0.20 | 0.20 | 1010.7 | ||
| 20260904070043 | 0 | 0.0 | 0.0 | 0.00 | 0.20 | 0.20 | 1010.7 | ||
| 20260904064533 | 0 | 0.0 | 0.0 | 0.00 | 0.20 | 0.20 | 1010.9 | ||
| 20260904063023 | 80 | 253 | 0.0 | 0.0 | 0.00 | 0.21 | 0.20 | 46 | 1010.8 |
| 20260904061522 | 80 | 253 | 0.0 | 0.0 | 0.00 | 0.21 | 0.20 | 46 | 1010.9 |
| 20260904060023 | 80 | 253 | 0.0 | 0.0 | 0.00 | 0.21 | 0.20 | 47 | 1010.9 |
| 20260904054530 | 81 | 253 | 0.0 | 0.0 | 0.00 | 0.21 | 0.20 | 49 | 1010.7 |
| 20260904053020 | 81 | 253 | 0.0 | 0.0 | 0.00 | 0.21 | 0.20 | 51 | 1010.6 |
| 20260904051520 | 81 | 253 | 0.0 | 0.0 | 0.00 | 0.21 | 0.20 | 53 | 1010.6 |
| 20260904050021 | 81 | 253 | 0.0 | 0.0 | 0.00 | 0.21 | 0.20 | 53 | 1010.6 |
| 20260904044529 | 81 | 253 | 0.0 | 0.0 | 0.00 | 0.21 | 0.20 | 52 | 1010.7 |
| 20260904043019 | 81 | 253 | 0.0 | 0.0 | 0.00 | 0.21 | 0.20 | 52 | 1010.5 |
| 20260904041520 | 81 | 253 | 0.0 | 0.0 | 0.00 | 0.21 | 0.20 | 51 | 1010.6 |
| 20260904040019 | 81 | 253 | 0.0 | 0.0 | 0.00 | 0.21 | 0.20 | 50 | 1010.6 |
| 20260904034539 | 81 | 253 | 0.0 | 0.0 | 0.00 | 0.21 | 0.20 | 48 | 1010.6 |
| 20260904033019 | 80 | 253 | 0.0 | 0.0 | 0.00 | 0.21 | 0.20 | 46 | 1010.5 |
| 20260904031516 | 80 | 253 | 0.0 | 0.0 | 0.00 | 0.21 | 0.20 | 47 | 1010.7 |
| 20260904030015 | 80 | 253 | 0.0 | 0.0 | 0.00 | 0.21 | 0.20 | 48 | 1010.6 |
| 20260904024514 | 80 | 253 | 0.0 | 0.0 | 0.00 | 0.21 | 0.20 | 50 | 1010.6 |
| 20260904023013 | 80 | 253 | 0.0 | 0.0 | 0.00 | 0.21 | 0.20 | 51 | 1010.5 |
| 20260904021513 | 80 | 253 | 0.0 | 0.0 | 0.00 | 0.21 | 0.20 | 49 | 1010.1 |
| 20260904020012 | 80 | 253 | 0.0 | 0.0 | 0.00 | 0.21 | 0.20 | 51 | 1010.0 |
| 20260904014511 | 80 | 253 | 0.0 | 0.0 | 0.00 | 0.21 | 0.20 | 54 | 1009.9 |
| 20260904013011 | 81 | 253 | 0.0 | 0.0 | 0.00 | 0.21 | 0.20 | 56 | 1009.7 |
| 20260904011532 | 81 | 253 | 0.0 | 0.0 | 0.00 | 0.21 | 0.20 | 56 | 1009.8 |
| 20260904010010 | 81 | 253 | 0.0 | 0.0 | 0.00 | 0.21 | 0.20 | 57 | 1009.6 |
| 20260904004509 | 81 | 253 | 0.0 | 0.0 | 0.00 | 0.21 | 0.20 | 58 | 1009.5 |
| 20260904003008 | 81 | 253 | 0.0 | 0.0 | 0.00 | 0.21 | 0.20 | 59 | 1009.6 |
| 20260904001507 | 81 | 252 | 0.0 | 0.0 | 0.00 | 0.21 | 0.20 | 60 | 1009.6 |
| 20260904000006 | 81 | 250 | 0.0 | 0.0 | 0.00 | 0.21 | 0.20 | 59 | 1009.9 |
| 20260903234503 | 81 | 249 | 0.0 | 0.0 | 0.00 | 0.21 | 0.20 | 59 | 1010.0 |
| 20260903233004 | 81 | 249 | 0.0 | 0.0 | 0.00 | 0.21 | 0.20 | 59 | 1010.0 |
| 20260903231601 | 80 | 249 | 0.0 | 0.0 | 0.00 | 0.21 | 0.20 | 55 | 1010.1 |
| 20260903230059 | 80 | 248 | 0.0 | 0.0 | 0.00 | 0.21 | 0.20 | 52 | 1010.2 |
| 20260903224558 | 79 | 248 | 0.0 | 0.0 | 0.00 | 0.21 | 0.20 | 52 | 1010.2 |
| 20260903223057 | 79 | 248 | 0.0 | 0.0 | 0.00 | 0.21 | 0.20 | 53 | 1010.1 |
| 20260903221558 | 79 | 255 | 0.0 | 0.0 | 0.00 | 0.21 | 0.20 | 52 | 1010.0 |
| 20260903220105 | 79 | 260 | 0.0 | 0.0 | 0.00 | 0.21 | 0.20 | 45 | 1010.4 |
| 20260903214553 | 79 | 264 | 0.0 | 0.0 | 0.01 | 0.21 | 0.20 | 42 | 1010.5 |
| 20260903213058 | 79 | 264 | 0.0 | 0.0 | 0.01 | 0.21 | 0.20 | 42 | 1010.7 |
| 20260903211555 | 78 | 264 | 0.0 | 0.0 | 0.02 | 0.21 | 0.20 | 44 | 1010.8 |
| 20260903210053 | 78 | 264 | 0.0 | 0.0 | 0.03 | 0.21 | 0.20 | 47 | 1010.9 |
| 20260903204546 | 78 | 264 | 0.0 | 0.0 | 0.03 | 0.20 | 0.19 | 48 | 1011.2 |
| 20260903203106 | 77 | 264 | 0.0 | 0.0 | 0.06 | 0.20 | 0.19 | 48 | 1011.4 |
| 20260903201546 | 77 | 264 | 0.0 | 0.0 | 0.07 | 0.20 | 0.19 | 48 | 1011.3 |
| 20260903200044 | 77 | 264 | 0.0 | 0.0 | 0.10 | 0.18 | 0.17 | 50 | 1011.3 |
| 20260903194545 | 77 | 264 | 0.0 | 0.0 | 0.16 | 0.17 | 0.16 | 55 | 1011.4 |
| 20260903193042 | 77 | 264 | 0.0 | 0.0 | 0.13 | 0.14 | 0.13 | 60 | 1011.2 |
| 20260903191537 | 78 | 265 | 0.0 | 0.0 | 0.13 | 0.14 | 0.13 | 64 | 1011.6 |
| 20260903190034 | 78 | 260 | 0.0 | 0.0 | 0.11 | 0.12 | 0.11 | 71 | 1011.5 |
| 20260903184534 | 81 | 280 | 0.0 | 0.0 | 0.00 | 0.01 | 0.00 | 73 | 1011.7 |
| 20260903183028 | 83 | 276 | 0.0 | 0.0 | 0.00 | 0.01 | 0.01 | 73 | 1011.9 |
| 20260903181525 | 85 | 160 | 0.0 | 0.0 | 0.00 | 0.01 | 0.01 | 73 | 1011.7 |
| 20260903180026 | 85 | 156 | 0.0 | 0.0 | 0.00 | 0.01 | 0.01 | 72 | 1011.7 |
| 20260903174526 | 86 | 160 | 0.0 | 0.0 | 0.00 | 0.01 | 0.01 | 72 | 1012.0 |
| 20260903173025 | 87 | 155 | 0.0 | 0.0 | 0.00 | 0.01 | 0.01 | 72 | 1011.8 |
| 20260903171524 | 88 | 129 | 0.0 | 0.0 | 0.00 | 0.01 | 0.01 | 69 | 1011.8 |
| 20260903170026 | 89 | 148 | 0.0 | 0.0 | 0.00 | 0.01 | 0.01 | 70 | 1011.8 |
| 20260903164524 | 89 | 148 | 0.0 | 0.0 | 0.00 | 0.01 | 0.01 | 68 | 1012.0 |
| 20260903163024 | 89 | 149 | 0.0 | 0.0 | 0.00 | 0.01 | 0.01 | 69 | 1012.2 |
| 20260903161525 | 87 | 155 | 0.0 | 0.0 | 0.00 | 0.01 | 0.01 | 72 | 1012.0 |
| 20260903160030 | 85 | 165 | 0.0 | 0.0 | 0.00 | 0.01 | 0.01 | 73 | 1012.1 |
| 20260903154526 | 87 | 162 | 0.0 | 0.0 | 0.00 | 0.01 | 0.01 | 72 | 1012.0 |
| 20260903153021 | 87 | 130 | 0.0 | 0.0 | 0.00 | 0.01 | 0.01 | 72 | 1011.9 |
| 20260903151522 | 86 | 141 | 0.0 | 0.0 | 0.00 | 0.01 | 0.01 | 71 | 1012.1 |
| 20260903150026 | 85 | 124 | 0.0 | 0.0 | 0.00 | 0.01 | 0.01 | 70 | 1012.3 |
| 20260903144539 | 85 | 124 | 0.0 | 0.0 | 0.00 | 0.01 | 0.01 | 68 | 1012.3 |
| 20260903143032 | 84 | 124 | 0.0 | 0.0 | 0.00 | 0.01 | 0.01 | 68 | 1012.2 |
| 20260903141520 | 84 | 124 | 0.0 | 0.0 | 0.00 | 0.01 | 0.01 | 69 | 1012.1 |
| 20260903140023 | 84 | 132 | 0.0 | 0.0 | 0.00 | 0.01 | 0.01 | 70 | 1012.2 |
| 20260903134519 | 83 | 118 | 0.0 | 0.0 | 0.00 | 0.01 | 0.01 | 71 | 1012.1 |
| 20260903133019 | 83 | 115 | 0.0 | 0.0 | 0.00 | 0.01 | 0.01 | 71 | 1011.9 |
| 20260903131518 | 0 | 0.0 | 0.0 | 0.00 | 0.01 | 0.01 | 1011.9 | ||
| 20260903130014 | 0 | 0.0 | 0.0 | 0.00 | 0.01 | 0.01 | 1011.8 | ||
| 20260903124509 | 0 | 0.0 | 0.0 | 0.00 | 0.01 | 0.01 | 1011.7 | ||
| 20260903123006 | 0 | 0.0 | 0.0 | 0.00 | 0.01 | 0.01 | 1011.4 |